Time;durP1;ratioP1;P1;durP2;ratioP2;P2;SDS_P1;SDS_P2;PMS_P1;PMS_P2;Temp;Humidity;BMP_temperature;BMP_pressure;BME280_temperature;BME280_humidity;BME280_pressure;Samples;Min_cycle;Max_cycle;Signal;HPM_P1;HPM_P2
2023/02/26 00:01:30;;;;;;;1999.90;999.90;;;1.30;99.90;;;;;;5031956;28;20549;-72
2023/02/26 00:03:58;;;;;;;1999.90;999.90;;;1.20;99.90;;;;;;5032300;28;20398;-72
2023/02/26 00:06:25;;;;;;;1999.90;999.90;;;1.20;99.90;;;;;;5031974;28;20165;-72
2023/02/26 00:08:51;;;;;;;1999.90;999.90;;;1.20;99.90;;;;;;5031992;28;20234;-71
2023/02/26 00:11:17;;;;;;;1999.90;999.90;;;1.20;99.90;;;;;;5032139;28;20232;-73
2023/02/26 00:13:44;;;;;;;1999.90;999.90;;;1.20;99.90;;;;;;5032229;28;20188;-72
2023/02/26 00:16:29;;;;;;;1999.90;999.90;;;1.20;99.90;;;;;;5031927;28;20200;-72
2023/02/26 00:18:56;;;;;;;1999.90;999.90;;;1.20;99.90;;;;;;5036032;28;20191;-72
2023/02/26 00:21:23;;;;;;;1999.90;999.90;;;1.20;99.90;;;;;;5035844;28;20178;-72
2023/02/26 00:23:49;;;;;;;1999.90;999.90;;;1.20;99.90;;;;;;5036244;28;20556;-71
2023/02/26 00:26:15;;;;;;;1999.90;999.90;;;1.10;99.90;;;;;;5035937;28;20176;-72
2023/02/26 00:28:41;;;;;;;1999.90;999.90;;;1.10;99.90;;;;;;5035725;28;20265;-72
2023/02/26 00:31:07;;;;;;;1999.90;999.90;;;1.10;99.90;;;;;;5035687;28;20168;-72
2023/02/26 00:33:33;;;;;;;1999.90;999.90;;;1.10;99.90;;;;;;5035849;28;20168;-72
2023/02/26 00:36:14;;;;;;;1999.90;999.90;;;1.10;99.90;;;;;;5035730;28;20192;-72
2023/02/26 00:38:43;;;;;;;1999.90;999.90;;;1.10;99.90;;;;;;5035619;28;20211;-72
2023/02/26 00:41:09;;;;;;;1999.90;999.90;;;1.20;99.90;;;;;;5035679;28;20183;-72
2023/02/26 00:43:35;;;;;;;1999.90;999.90;;;1.30;99.90;;;;;;5035702;28;20661;-72
2023/02/26 00:46:04;;;;;;;1999.90;999.90;;;1.30;99.90;;;;;;5035738;28;20181;-72
2023/02/26 00:49:07;;;;;;;1999.90;999.90;;;1.40;99.90;;;;;;5035474;28;20211;-72
2023/02/26 00:51:41;;;;;;;1999.90;999.90;;;1.50;99.90;;;;;;5035591;28;20164;-71
2023/02/26 00:54:22;;;;;;;1999.90;999.90;;;1.50;99.90;;;;;;5035504;28;20167;-71
2023/02/26 00:56:49;;;;;;;1999.90;999.90;;;1.60;99.90;;;;;;5035218;28;20164;-71
2023/02/26 00:59:16;;;;;;;1999.90;999.90;;;1.60;99.90;;;;;;5035183;28;20187;-71
2023/02/26 01:01:42;;;;;;;1999.90;999.90;;;1.60;99.90;;;;;;5035067;28;20172;-71
2023/02/26 01:04:09;;;;;;;1999.90;999.90;;;1.70;99.90;;;;;;5035104;28;20164;-71
2023/02/26 01:06:42;;;;;;;1999.90;999.90;;;1.70;99.90;;;;;;5035202;28;20518;-71
2023/02/26 01:09:20;;;;;;;1999.90;999.90;;;1.70;99.90;;;;;;5035153;28;20214;-71
2023/02/26 01:11:46;;;;;;;1999.90;999.90;;;1.70;99.90;;;;;;5034819;28;20176;-71
2023/02/26 01:14:12;;;;;;;1999.90;999.90;;;1.70;99.90;;;;;;5035011;28;20168;-71
2023/02/26 01:16:48;;;;;;;1999.90;999.90;;;1.80;99.90;;;;;;5035025;28;20509;-73
2023/02/26 01:19:24;;;;;;;1999.90;999.90;;;1.80;99.90;;;;;;5036145;28;20847;-72
2023/02/26 01:22:02;;;;;;;1999.90;999.90;;;1.80;99.90;;;;;;5036259;28;20183;-73
2023/02/26 01:24:31;;;;;;;1999.90;999.90;;;1.90;99.90;;;;;;5036504;28;20168;-72
2023/02/26 01:26:56;;;;;;;1999.90;999.90;;;1.90;99.90;;;;;;5036472;28;20180;-72
2023/02/26 01:29:22;;;;;;;1999.90;999.90;;;2.00;99.90;;;;;;5034980;28;20181;-72
2023/02/26 01:31:51;;;;;;;1999.90;999.90;;;2.00;99.90;;;;;;5035689;28;20626;-72
2023/02/26 01:34:48;;;;;;;1999.90;999.90;;;2.00;99.90;;;;;;5035552;28;20403;-72
2023/02/26 01:37:22;;;;;;;1999.90;999.90;;;1.90;99.90;;;;;;5032360;28;20710;-72
2023/02/26 01:40:20;;;;;;;1999.90;999.90;;;2.00;99.90;;;;;;5035436;28;20283;-72
2023/02/26 01:42:51;;;;;;;1999.90;999.90;;;2.00;99.90;;;;;;5035478;28;20176;-72
2023/02/26 01:45:23;;;;;;;1999.90;999.90;;;2.00;99.90;;;;;;5035146;28;20176;-72
2023/02/26 01:48:03;;;;;;;1999.90;999.90;;;2.00;99.90;;;;;;5035097;28;20199;-72
2023/02/26 01:50:33;;;;;;;1999.90;999.90;;;2.00;99.90;;;;;;5035514;28;20227;-72
2023/02/26 01:53:16;;;;;;;1999.90;999.90;;;2.00;99.90;;;;;;5035849;28;20176;-73
2023/02/26 01:55:46;;;;;;;1999.90;999.90;;;2.00;99.90;;;;;;5036304;28;20191;-73
2023/02/26 01:58:12;;;;;;;1999.90;999.90;;;2.10;99.90;;;;;;5035763;28;20168;-72
2023/02/26 02:00:37;;;;;;;1999.90;999.90;;;2.00;99.90;;;;;;5036201;28;20630;-71
2023/02/26 02:03:03;;;;;;;1999.90;999.90;;;2.00;99.90;;;;;;5036051;28;20192;-73
2023/02/26 02:05:31;;;;;;;1999.90;999.90;;;2.00;99.90;;;;;;5036737;28;20243;-72
2023/02/26 02:07:58;;;;;;;1999.90;999.90;;;2.00;99.90;;;;;;5035794;28;20751;-73
2023/02/26 02:10:24;;;;;;;1999.90;999.90;;;2.00;99.90;;;;;;5035781;28;20188;-72
2023/02/26 02:13:01;;;;;;;1999.90;999.90;;;1.90;99.90;;;;;;5034929;28;20177;-72
2023/02/26 02:15:49;;;;;;;1999.90;999.90;;;1.80;99.90;;;;;;5035345;28;20540;-72
2023/02/26 02:18:50;;;;;;;1999.90;999.90;;;1.70;99.90;;;;;;5033754;28;20260;-71
2023/02/26 02:21:22;;;;;;;1999.90;999.90;;;1.80;99.90;;;;;;4972328;28;20205;-71
2023/02/26 02:24:13;;;;;;;1999.90;999.90;;;1.80;99.90;;;;;;5023507;28;20553;-71
2023/02/26 02:26:41;;;;;;;1999.90;999.90;;;1.70;99.90;;;;;;5033624;28;20310;-71
2023/02/26 02:29:26;;;;;;;1999.90;999.90;;;1.70;99.90;;;;;;5033450;28;20197;-71
2023/02/26 02:31:59;;;;;;;1999.90;999.90;;;1.60;99.90;;;;;;5033629;28;20711;-71
2023/02/26 02:34:33;;;;;;;1999.90;999.90;;;1.50;99.90;;;;;;5033500;28;20168;-71
2023/02/26 02:37:33;;;;;;;1999.90;999.90;;;1.50;99.90;;;;;;5033615;28;20164;-71
2023/02/26 02:40:10;;;;;;;1999.90;999.90;;;1.50;99.90;;;;;;5032854;28;20234;-71
2023/02/26 02:42:50;;;;;;;1999.90;999.90;;;1.40;99.90;;;;;;5033108;28;20187;-71
2023/02/26 02:45:22;;;;;;;1999.90;999.90;;;1.40;99.90;;;;;;5033272;28;20164;-71
2023/02/26 02:47:56;;;;;;;1999.90;999.90;;;1.30;99.90;;;;;;5032993;28;20282;-71
2023/02/26 02:50:28;;;;;;;1999.90;999.90;;;1.20;99.90;;;;;;5033072;28;20244;-71
2023/02/26 02:53:03;;;;;;;1999.90;999.90;;;1.20;99.90;;;;;;5032966;28;20168;-71
2023/02/26 02:55:38;;;;;;;1999.90;999.90;;;1.10;99.90;;;;;;5033183;28;20149;-71
2023/02/26 02:58:13;;;;;;;1999.90;999.90;;;1.10;99.90;;;;;;5032958;28;20156;-71
2023/02/26 03:00:47;;;;;;;1999.90;999.90;;;1.00;99.90;;;;;;5033017;28;20187;-71
2023/02/26 03:03:23;;;;;;;1999.90;999.90;;;1.00;99.90;;;;;;5032980;28;20657;-71
2023/02/26 03:05:49;;;;;;;1999.90;999.90;;;1.00;99.90;;;;;;5032842;28;20547;-71
2023/02/26 03:08:19;;;;;;;1999.90;999.90;;;0.80;99.90;;;;;;5032719;28;20215;-71
2023/02/26 03:10:45;;;;;;;1999.90;999.90;;;0.80;99.90;;;;;;5032883;28;20169;-70
2023/02/26 03:13:23;;;;;;;1999.90;999.90;;;0.80;99.90;;;;;;5032712;28;20259;-71
2023/02/26 03:15:51;;;;;;;1999.90;999.90;;;0.80;99.90;;;;;;5032824;28;20156;-71
2023/02/26 03:18:44;;;;;;;1999.90;999.90;;;0.40;99.90;;;;;;5032627;28;20172;-71
2023/02/26 03:21:51;;;;;;;1999.90;999.90;;;0.70;99.90;;;;;;5032514;28;20164;-71
2023/02/26 03:24:35;;;;;;;1999.90;999.90;;;0.70;99.90;;;;;;5004338;28;20211;-71
2023/02/26 03:27:19;;;;;;;1999.90;999.90;;;0.70;99.90;;;;;;5032458;28;20690;-71
2023/02/26 03:30:02;;;;;;;1999.90;999.90;;;0.60;99.90;;;;;;5032431;28;20258;-71
2023/02/26 03:32:42;;;;;;;1999.90;999.90;;;0.60;99.90;;;;;;5032246;28;20168;-70
2023/02/26 03:35:10;;;;;;;1999.90;999.90;;;0.50;99.90;;;;;;5032461;28;20151;-70
2023/02/26 03:37:41;;;;;;;1999.90;999.90;;;0.50;99.90;;;;;;5032159;28;20323;-71
2023/02/26 03:40:31;;;;;;;1999.90;999.90;;;0.50;99.90;;;;;;5032279;28;20250;-71
2023/02/26 03:43:06;;;;;;;1999.90;999.90;;;0.50;99.90;;;;;;5032116;28;20180;-71
2023/02/26 03:45:37;;;;;;;1999.90;999.90;;;0.50;99.90;;;;;;5032250;28;20178;-71
2023/02/26 03:48:07;;;;;;;1999.90;999.90;;;0.40;99.90;;;;;;5031972;28;20220;-71
2023/02/26 03:50:42;;;;;;;1999.90;999.90;;;0.30;99.90;;;;;;5032202;28;20174;-71
2023/02/26 03:53:14;;;;;;;1999.90;999.90;;;0.40;99.90;;;;;;5031482;28;20172;-70
2023/02/26 03:56:04;;;;;;;1999.90;999.90;;;0.40;99.90;;;;;;5032127;28;20200;-71
2023/02/26 03:58:30;;;;;;;1999.90;999.90;;;0.40;99.90;;;;;;5032066;28;20188;-71
2023/02/26 04:01:03;;;;;;;1999.90;999.90;;;0.30;99.90;;;;;;5032140;28;20176;-71
2023/02/26 04:03:37;;;;;;;1999.90;999.90;;;0.30;99.90;;;;;;5031928;28;20230;-71
2023/02/26 04:06:03;;;;;;;1999.90;999.90;;;0.30;99.90;;;;;;5031918;28;20243;-71
2023/02/26 04:08:30;;;;;;;1999.90;999.90;;;0.30;99.90;;;;;;5031824;28;20200;-71
2023/02/26 04:10:59;;;;;;;1999.90;999.90;;;0.30;99.90;;;;;;5031785;28;20246;-70
2023/02/26 04:13:25;;;;;;;1999.90;999.90;;;0.20;99.90;;;;;;5031877;28;20172;-71
2023/02/26 04:15:51;;;;;;;1999.90;999.90;;;0.30;99.90;;;;;;5031660;28;20168;-71
2023/02/26 04:18:17;;;;;;;1999.90;999.90;;;0.20;99.90;;;;;;5031780;28;20177;-71
2023/02/26 04:20:42;;;;;;;1999.90;999.90;;;0.20;99.90;;;;;;5032010;28;20202;-70
2023/02/26 04:23:08;;;;;;;1999.90;999.90;;;0.20;99.90;;;;;;5031607;28;20638;-71
2023/02/26 04:25:33;;;;;;;1999.90;999.90;;;0.20;99.90;;;;;;5031854;28;20176;-70
2023/02/26 04:27:59;;;;;;;1999.90;999.90;;;0.20;99.90;;;;;;5031591;28;20745;-71
2023/02/26 04:30:24;;;;;;;1999.90;999.90;;;0.20;99.90;;;;;;5031631;28;20215;-70
2023/02/26 04:32:50;;;;;;;1999.90;999.90;;;0.20;99.90;;;;;;5031513;28;20153;-70
2023/02/26 04:35:16;;;;;;;1999.90;999.90;;;0.20;99.90;;;;;;5031648;28;20622;-70
2023/02/26 04:37:41;;;;;;;1999.90;999.90;;;0.20;99.90;;;;;;5031508;28;20179;-71
2023/02/26 04:40:07;;;;;;;1999.90;999.90;;;0.10;99.90;;;;;;5031571;28;20196;-70
2023/02/26 04:42:33;;;;;;;1999.90;999.90;;;0.10;99.90;;;;;;5031497;28;20573;-71
2023/02/26 04:44:59;;;;;;;1999.90;999.90;;;0.10;99.90;;;;;;5031516;28;20187;-70
2023/02/26 04:47:24;;;;;;;1999.90;999.90;;;0.10;99.90;;;;;;5031451;28;20666;-71
2023/02/26 04:49:50;;;;;;;1999.90;999.90;;;0.10;99.90;;;;;;5031616;28;20278;-71
2023/02/26 04:52:15;;;;;;;1999.90;999.90;;;0.10;99.90;;;;;;5031380;28;20379;-70
2023/02/26 04:54:41;;;;;;;1999.90;999.90;;;0.10;99.90;;;;;;5031541;28;20169;-70
2023/02/26 04:57:07;;;;;;;1999.90;999.90;;;0.00;99.90;;;;;;5031423;28;20179;-71
2023/02/26 04:59:32;;;;;;;1999.90;999.90;;;0.00;99.90;;;;;;5031366;28;20199;-71
2023/02/26 05:01:58;;;;;;;1999.90;999.90;;;0.00;99.90;;;;;;5031216;28;20226;-72
2023/02/26 05:04:24;;;;;;;1999.90;999.90;;;0.00;99.90;;;;;;5034436;28;20188;-70
2023/02/26 05:06:49;;;;;;;1999.90;999.90;;;0.00;99.90;;;;;;5035020;28;20168;-71
2023/02/26 05:09:15;;;;;;;1999.90;999.90;;;0.00;99.90;;;;;;5035065;28;20189;-70
2023/02/26 05:11:41;;;;;;;1999.90;999.90;;;-0.10;99.90;;;;;;5034882;28;20172;-71
2023/02/26 05:14:07;;;;;;;1999.90;999.90;;;0.00;99.90;;;;;;5034913;28;20403;-70
2023/02/26 05:16:32;;;;;;;1999.90;999.90;;;0.00;99.90;;;;;;5034823;28;20245;-71
2023/02/26 05:18:58;;;;;;;1999.90;999.90;;;0.00;99.90;;;;;;5034851;28;20728;-72
2023/02/26 05:21:23;;;;;;;1999.90;999.90;;;0.00;99.90;;;;;;5034699;28;20176;-71
2023/02/26 05:23:49;;;;;;;1999.90;999.90;;;0.00;99.90;;;;;;5034875;28;20176;-71
2023/02/26 05:26:15;;;;;;;1999.90;999.90;;;0.00;99.90;;;;;;5034642;28;20346;-72
2023/02/26 05:28:40;;;;;;;1999.90;999.90;;;-0.10;99.90;;;;;;5034569;28;20208;-71
2023/02/26 05:31:06;;;;;;;1999.90;999.90;;;0.00;99.90;;;;;;5034529;28;20747;-71
2023/02/26 05:33:31;;;;;;;1999.90;999.90;;;-0.10;99.90;;;;;;5034609;28;20299;-72
2023/02/26 05:35:57;;;;;;;1999.90;999.90;;;-0.10;99.90;;;;;;5034510;28;20169;-71
2023/02/26 05:38:23;;;;;;;1999.90;999.90;;;-0.10;99.90;;;;;;5034393;28;20250;-71
2023/02/26 05:40:49;;;;;;;1999.90;999.90;;;-0.10;99.90;;;;;;5034335;28;20435;-71
2023/02/26 05:43:14;;;;;;;1999.90;999.90;;;-0.10;99.90;;;;;;5034344;28;20176;-71
2023/02/26 05:45:40;;;;;;;1999.90;999.90;;;0.00;99.90;;;;;;5034420;28;20426;-71
2023/02/26 05:48:06;;;;;;;1999.90;999.90;;;-0.10;99.90;;;;;;5034085;28;20215;-71
2023/02/26 05:50:31;;;;;;;1999.90;999.90;;;-0.10;99.90;;;;;;5034373;28;20172;-71
2023/02/26 05:52:57;;;;;;;1999.90;999.90;;;-0.10;99.90;;;;;;5034226;28;20419;-71
2023/02/26 05:55:23;;;;;;;1999.90;999.90;;;-0.10;99.90;;;;;;5034237;28;20183;-72
2023/02/26 05:57:49;;;;;;;1999.90;999.90;;;-0.10;99.90;;;;;;5034025;28;20457;-71
2023/02/26 06:00:15;;;;;;;1999.90;999.90;;;-0.10;99.90;;;;;;5034065;28;20434;-71
2023/02/26 06:02:41;;;;;;;1999.90;999.90;;;-0.20;99.90;;;;;;5034117;28;20183;-71
2023/02/26 06:05:07;;;;;;;1999.90;999.90;;;-0.20;99.90;;;;;;5033985;28;20537;-71
2023/02/26 06:07:33;;;;;;;1999.90;999.90;;;-0.20;99.90;;;;;;5033978;28;20478;-71
2023/02/26 06:09:58;;;;;;;1999.90;999.90;;;-0.30;99.90;;;;;;5033891;28;20721;-71
2023/02/26 06:12:24;;;;;;;1999.90;999.90;;;-0.30;99.90;;;;;;5033646;28;20175;-71
2023/02/26 06:14:50;;;;;;;1999.90;999.90;;;-0.30;99.90;;;;;;5033208;28;20168;-71
2023/02/26 06:17:15;;;;;;;1999.90;999.90;;;-0.30;99.90;;;;;;5033702;28;20670;-71
2023/02/26 06:19:41;;;;;;;1999.90;999.90;;;-0.30;99.90;;;;;;5033725;28;20196;-71
2023/02/26 06:22:06;;;;;;;1999.90;999.90;;;-0.30;99.90;;;;;;5033516;28;20259;-71
2023/02/26 06:24:32;;;;;;;1999.90;999.90;;;-0.30;99.90;;;;;;5033654;28;20215;-71
2023/02/26 06:26:57;;;;;;;1999.90;999.90;;;-0.30;99.90;;;;;;5033384;28;20724;-72
2023/02/26 06:29:23;;;;;;;1999.90;999.90;;;-0.30;99.90;;;;;;5033507;28;20724;-71
2023/02/26 06:31:49;;;;;;;1999.90;999.90;;;-0.30;99.90;;;;;;5033506;28;20260;-71
2023/02/26 06:34:15;;;;;;;1999.90;999.90;;;-0.30;99.90;;;;;;5033636;28;20183;-71
2023/02/26 06:36:40;;;;;;;1999.90;999.90;;;-0.40;99.90;;;;;;5033374;28;20161;-71
2023/02/26 06:39:06;;;;;;;1999.90;999.90;;;-0.40;99.90;;;;;;5033281;28;20208;-71
2023/02/26 06:41:33;;;;;;;1999.90;999.90;;;-0.40;99.90;;;;;;5033091;28;20473;-71
2023/02/26 06:43:58;;;;;;;1999.90;999.90;;;-0.40;99.90;;;;;;5033496;28;20475;-71
2023/02/26 06:46:24;;;;;;;1999.90;999.90;;;-0.40;99.90;;;;;;5033226;28;20549;-71
2023/02/26 06:48:49;;;;;;;1999.90;999.90;;;-0.40;99.90;;;;;;5033059;28;20243;-71
2023/02/26 06:51:15;;;;;;;1999.90;999.90;;;-0.30;99.90;;;;;;5033437;28;20164;-70
2023/02/26 06:53:40;;;;;;;1999.90;999.90;;;-0.30;99.90;;;;;;5033212;28;20196;-71
2023/02/26 06:56:06;;;;;;;1999.90;999.90;;;-0.30;99.90;;;;;;5032881;28;20625;-70
2023/02/26 06:58:32;;;;;;;1999.90;999.90;;;-0.30;99.90;;;;;;5033073;28;20277;-70
2023/02/26 07:00:57;;;;;;;1999.90;999.90;;;-0.30;99.90;;;;;;5032925;28;20414;-70
2023/02/26 07:03:23;;;;;;;1999.90;999.90;;;-0.30;99.90;;;;;;5032980;28;20178;-70
2023/02/26 07:05:49;;;;;;;1999.90;999.90;;;-0.20;99.90;;;;;;5032915;28;20659;-72
2023/02/26 07:08:14;;;;;;;1999.90;999.90;;;-0.20;99.90;;;;;;5032815;28;20202;-70
2023/02/26 07:10:41;;;;;;;1999.90;999.90;;;-0.20;99.90;;;;;;5032731;28;20646;-71
2023/02/26 07:13:06;;;;;;;1999.90;999.90;;;-0.20;99.90;;;;;;5032573;28;20192;-70
2023/02/26 07:15:32;;;;;;;1999.90;999.90;;;-0.10;99.90;;;;;;5032806;28;20219;-71
2023/02/26 07:18:00;;;;;;;1999.90;999.90;;;-0.10;99.90;;;;;;5032536;28;20653;-71
2023/02/26 07:20:27;;;;;;;1999.90;999.90;;;0.00;99.90;;;;;;5032591;28;20188;-71
2023/02/26 07:22:52;;;;;;;1999.90;999.90;;;0.10;99.90;;;;;;5032428;28;20667;-71
2023/02/26 07:25:18;;;;;;;1999.90;999.90;;;0.10;99.90;;;;;;5032426;28;20176;-71
2023/02/26 07:27:43;;;;;;;1999.90;999.90;;;0.10;99.90;;;;;;5032333;28;20195;-71
2023/02/26 07:30:10;;;;;;;1999.90;999.90;;;0.20;99.90;;;;;;5032625;28;20227;-72
2023/02/26 07:32:35;;;;;;;1999.90;999.90;;;0.20;99.90;;;;;;5032666;28;20168;-71
2023/02/26 07:35:01;;;;;;;1999.90;999.90;;;0.30;99.90;;;;;;5032789;28;20169;-72
2023/02/26 07:37:28;;;;;;;1999.90;999.90;;;0.40;99.90;;;;;;5032801;28;20191;-72
2023/02/26 07:39:54;;;;;;;1999.90;999.90;;;0.30;99.90;;;;;;5032846;28;20587;-72
2023/02/26 07:42:20;;;;;;;1999.90;999.90;;;0.40;99.90;;;;;;5032584;28;20267;-72
2023/02/26 07:44:45;;;;;;;1999.90;999.90;;;0.40;99.90;;;;;;5033034;28;20184;-72
2023/02/26 07:47:11;;;;;;;1999.90;999.90;;;0.50;99.90;;;;;;5032192;28;20199;-71
2023/02/26 07:49:37;;;;;;;1999.90;999.90;;;0.60;99.90;;;;;;5032167;28;20658;-71
2023/02/26 07:52:03;;;;;;;1999.90;999.90;;;0.60;99.90;;;;;;5032084;28;20635;-71
2023/02/26 07:54:28;;;;;;;1999.90;999.90;;;0.60;99.90;;;;;;5032039;28;20211;-71
2023/02/26 07:56:54;;;;;;;1999.90;999.90;;;0.60;99.90;;;;;;5032042;28;20411;-70
2023/02/26 07:59:20;;;;;;;1999.90;999.90;;;0.60;99.90;;;;;;5032047;28;20209;-70
2023/02/26 08:01:45;;;;;;;1999.90;999.90;;;0.70;99.90;;;;;;5031950;28;20676;-71
2023/02/26 08:04:11;;;;;;;1999.90;999.90;;;0.70;99.90;;;;;;5031966;28;20172;-71
2023/02/26 08:06:37;;;;;;;1999.90;999.90;;;0.80;99.90;;;;;;5032088;28;20164;-71
2023/02/26 08:09:03;;;;;;;1999.90;999.90;;;0.90;99.90;;;;;;5031752;28;20720;-71
2023/02/26 08:11:29;;;;;;;1999.90;999.90;;;0.90;99.90;;;;;;5031719;28;20395;-71
2023/02/26 08:13:54;;;;;;;1999.90;999.90;;;1.00;99.90;;;;;;5031999;28;20180;-71
2023/02/26 08:16:20;;;;;;;1999.90;999.90;;;1.10;99.90;;;;;;5031768;28;20395;-71
2023/02/26 08:18:46;;;;;;;1999.90;999.90;;;1.20;99.90;;;;;;5031849;28;20250;-71
2023/02/26 08:21:11;;;;;;;1999.90;999.90;;;1.20;99.90;;;;;;5031808;28;20754;-70
2023/02/26 08:23:38;;;;;;;1999.90;999.90;;;1.20;99.90;;;;;;5031632;28;20248;-71
2023/02/26 08:26:07;;;;;;;1999.90;999.90;;;1.20;99.90;;;;;;5031594;28;20191;-71
2023/02/26 08:28:33;;;;;;;1999.90;999.90;;;1.10;99.90;;;;;;5031592;28;20668;-71
2023/02/26 08:30:59;;;;;;;1999.90;999.90;;;1.20;99.90;;;;;;5031577;28;20169;-71
2023/02/26 08:33:24;;;;;;;1999.90;999.90;;;1.30;99.90;;;;;;5031760;28;20263;-70
2023/02/26 08:35:50;;;;;;;1999.90;999.90;;;1.40;99.90;;;;;;5031723;28;20576;-71
2023/02/26 08:38:16;;;;;;;1999.90;999.90;;;1.60;99.90;;;;;;5032593;28;20183;-71
2023/02/26 08:40:42;;;;;;;1999.90;999.90;;;1.60;99.90;;;;;;5035815;28;20413;-71
2023/02/26 08:43:10;;;;;;;1999.90;999.90;;;1.60;99.90;;;;;;5035460;28;20187;-72
2023/02/26 08:45:36;;;;;;;1999.90;999.90;;;1.70;99.90;;;;;;5035521;28;20164;-71
2023/02/26 08:48:01;;;;;;;1999.90;999.90;;;1.70;99.90;;;;;;5035304;28;20211;-71
2023/02/26 08:50:27;;;;;;;1999.90;999.90;;;1.70;99.90;;;;;;5035428;28;20466;-72
2023/02/26 08:52:53;;;;;;;1999.90;999.90;;;1.70;99.90;;;;;;5035194;28;20263;-71
2023/02/26 08:55:19;;;;;;;1999.90;999.90;;;1.70;99.90;;;;;;5035550;28;20199;-72
2023/02/26 08:57:44;;;;;;;1999.90;999.90;;;1.80;99.90;;;;;;5035176;28;20916;-70
2023/02/26 09:00:11;;;;;;;1999.90;999.90;;;1.90;99.90;;;;;;5035266;28;20227;-70
2023/02/26 09:02:37;;;;;;;1999.90;999.90;;;1.90;99.90;;;;;;5034949;28;20172;-70
2023/02/26 09:05:03;;;;;;;1999.90;999.90;;;2.10;99.90;;;;;;5035222;28;20181;-70
2023/02/26 09:07:29;;;;;;;1999.90;999.90;;;2.20;99.90;;;;;;5034933;28;20203;-71
2023/02/26 09:09:54;;;;;;;1999.90;999.90;;;2.20;99.90;;;;;;5035003;28;20188;-71
2023/02/26 09:12:20;;;;;;;1999.90;999.90;;;2.40;99.90;;;;;;5034842;28;20622;-71
2023/02/26 09:14:46;;;;;;;1999.90;999.90;;;2.50;99.90;;;;;;5035120;28;20267;-71
2023/02/26 09:17:11;;;;;;;1999.90;999.90;;;2.60;99.90;;;;;;5034862;28;20403;-70
2023/02/26 09:19:37;;;;;;;1999.90;999.90;;;2.70;99.90;;;;;;5034884;28;20258;-71
2023/02/26 09:22:03;;;;;;;1999.90;999.90;;;2.90;99.90;;;;;;5034708;28;20180;-70
2023/02/26 09:24:29;;;;;;;1999.90;999.90;;;3.00;99.90;;;;;;5034786;28;20205;-70
2023/02/26 09:26:54;;;;;;;1999.90;999.90;;;2.90;99.90;;;;;;5034731;28;20638;-71
2023/02/26 09:29:20;;;;;;;1999.90;999.90;;;3.00;99.90;;;;;;5033371;28;20188;-70
2023/02/26 09:31:46;;;;;;;1999.90;999.90;;;3.10;99.90;;;;;;5034680;28;20255;-71
2023/02/26 09:34:12;;;;;;;1999.90;999.90;;;3.30;99.90;;;;;;5034648;28;20172;-71
2023/02/26 09:36:38;;;;;;;1999.90;999.90;;;3.30;99.90;;;;;;5034462;28;20226;-71
2023/02/26 09:39:05;;;;;;;1999.90;999.90;;;3.30;99.90;;;;;;5034425;28;20208;-71
2023/02/26 09:41:40;;;;;;;1999.90;999.90;;;3.40;99.90;;;;;;5034319;28;20222;-71
2023/02/26 09:44:14;;;;;;;1999.90;999.90;;;3.30;99.90;;;;;;5034463;28;20179;-71
2023/02/26 09:46:39;;;;;;;1999.90;999.90;;;3.30;99.90;;;;;;5034397;28;20594;-71
2023/02/26 09:49:33;;;;;;;1999.90;999.90;;;3.30;99.90;;;;;;5033670;28;20196;-72
2023/02/26 09:52:07;;;;;;;1999.90;999.90;;;3.40;99.90;;;;;;5034218;28;20160;-71
2023/02/26 09:54:40;;;;;;;1999.90;999.90;;;3.40;99.90;;;;;;5034217;28;20407;-71
2023/02/26 09:57:10;;;;;;;1999.90;999.90;;;3.30;99.90;;;;;;5034191;28;20704;-71
2023/02/26 09:59:36;;;;;;;1999.90;999.90;;;3.30;99.90;;;;;;5034105;28;20426;-71
2023/02/26 10:02:34;;;;;;;1999.90;999.90;;;3.20;99.90;;;;;;5033939;28;20533;-71
2023/02/26 10:05:08;;;;;;;1999.90;999.90;;;3.40;99.90;;;;;;5029903;28;20434;-71
2023/02/26 10:07:58;;;;;;;1999.90;999.90;;;3.40;99.90;;;;;;5033849;28;20654;-71
2023/02/26 10:10:45;;;;;;;1999.90;999.90;;;3.50;99.90;;;;;;5033916;28;21089;-71
2023/02/26 10:13:30;;;;;;;1999.90;999.90;;;3.60;99.90;;;;;;5033946;28;20168;-72
2023/02/26 10:16:02;;;;;;;1999.90;999.90;;;3.80;99.90;;;;;;5033806;28;20175;-71
2023/02/26 10:18:33;;;;;;;1999.90;999.90;;;4.00;99.90;;;;;;5033958;28;20954;-72
2023/02/26 10:21:07;;;;;;;1999.90;999.90;;;4.30;99.90;;;;;;5033785;28;20476;-71
2023/02/26 10:23:45;;;;;;;1999.90;999.90;;;4.40;99.90;;;;;;5032651;28;20406;-72
2023/02/26 10:26:19;;;;;;;1999.90;999.90;;;4.50;99.90;;;;;;5033601;28;20811;-71
2023/02/26 10:29:03;;;;;;;1999.90;999.90;;;4.50;99.90;;;;;;5033447;28;20466;-72
2023/02/26 10:31:43;;;;;;;1999.90;999.90;;;4.40;99.90;;;;;;5033323;28;20399;-71
2023/02/26 10:34:39;;;;;;;1999.90;999.90;;;4.50;99.90;;;;;;5033606;28;20247;-72
2023/02/26 10:37:16;;;;;;;1999.90;999.90;;;4.70;99.90;;;;;;5025599;28;20438;-69
2023/02/26 10:40:05;;;;;;;1999.90;999.90;;;4.70;99.90;;;;;;5031452;28;20250;-70
2023/02/26 10:42:43;;;;;;;1999.90;999.90;;;4.70;99.90;;;;;;5030025;28;20395;-70
2023/02/26 10:45:27;;;;;;;1999.90;999.90;;;4.90;99.90;;;;;;5029277;28;20412;-70
2023/02/26 10:48:12;;;;;;;1999.90;999.90;;;4.70;99.90;;;;;;5032324;28;20971;-71
2023/02/26 10:50:46;;;;;;;1999.90;999.90;;;4.60;99.90;;;;;;5033155;28;20422;-70
2023/02/26 10:53:12;;;;;;;1999.90;999.90;;;4.60;99.90;;;;;;4999452;28;20446;-70
2023/02/26 10:56:00;;;;;;;1999.90;999.90;;;4.80;99.90;;;;;;5028884;28;20920;-70
2023/02/26 10:58:26;;;;;;;1999.90;999.90;;;4.80;99.90;;;;;;4991660;28;20288;-71
2023/02/26 11:00:54;;;;;;;1999.90;999.90;;;4.60;99.90;;;;;;5007451;28;20486;-71
2023/02/26 11:03:33;;;;;;;1999.90;999.90;;;4.60;99.90;;;;;;5032019;28;20646;-70
2023/02/26 11:06:02;;;;;;;1999.90;999.90;;;4.60;99.90;;;;;;5031737;28;20403;-71
2023/02/26 11:08:33;;;;;;;1999.90;999.90;;;4.80;99.90;;;;;;5031411;28;20516;-70
2023/02/26 11:11:02;;;;;;;1999.90;999.90;;;5.00;99.90;;;;;;5027723;28;20427;-70
2023/02/26 11:13:32;;;;;;;1999.90;999.90;;;5.10;99.90;;;;;;5031767;28;20438;-69
2023/02/26 11:16:03;;;;;;;1999.90;999.90;;;5.40;99.90;;;;;;5010908;28;20530;-70
2023/02/26 11:18:40;;;;;;;1999.90;999.90;;;5.50;99.90;;;;;;5011381;28;20431;-69
2023/02/26 11:21:07;;;;;;;1999.90;999.90;;;5.70;99.90;;;;;;5031471;28;20411;-74
2023/02/26 11:23:33;;;;;;;1999.90;999.90;;;5.80;99.90;;;;;;5031976;28;20415;-71
2023/02/26 11:26:04;;;;;;;1999.90;999.90;;;5.90;99.90;;;;;;5031897;28;20469;-70
2023/02/26 11:28:48;;;;;;;1999.90;999.90;;;5.90;99.20;;;;;;5031974;28;20515;-70
2023/02/26 11:31:24;;;;;;;1999.90;999.90;;;5.80;98.80;;;;;;5031245;28;20810;-69
2023/02/26 11:34:03;;;;;;;1999.90;999.90;;;5.70;96.70;;;;;;5031489;28;20426;-70
2023/02/26 11:36:31;;;;;;;1999.90;999.90;;;5.60;97.10;;;;;;5031173;28;20395;-71
2023/02/26 11:39:02;;;;;;;1999.90;999.90;;;5.60;97.00;;;;;;5031660;28;20454;-70
2023/02/26 11:41:28;;;;;;;1999.90;999.90;;;5.50;97.20;;;;;;5006363;28;20424;-69
2023/02/26 11:44:05;;;;;;;1999.90;999.90;;;5.50;94.90;;;;;;4992109;28;20421;-71
2023/02/26 11:46:34;;;;;;;1999.90;999.90;;;5.40;95.00;;;;;;5023223;28;20453;-71
2023/02/26 11:49:01;;;;;;;1999.90;999.90;;;5.50;95.40;;;;;;5030982;28;20467;-71
2023/02/26 11:51:28;;;;;;;1999.90;999.90;;;5.80;97.30;;;;;;5031528;28;20819;-71
2023/02/26 11:54:00;;;;;;;1999.90;999.90;;;6.70;93.40;;;;;;5031249;28;20735;-71
2023/02/26 11:56:41;;;;;;;1999.90;999.90;;;7.60;83.10;;;;;;5030702;28;20445;-71
2023/02/26 11:59:20;;;;;;;1999.90;999.90;;;8.40;70.70;;;;;;5031473;28;20940;-71
2023/02/26 12:01:47;;;;;;;1999.90;999.90;;;8.90;52.80;;;;;;5031234;28;20783;-71
2023/02/26 12:04:14;;;;;;;1999.90;999.90;;;9.70;53.50;;;;;;5031036;28;20967;-72
2023/02/26 12:06:40;;;;;;;1999.90;999.90;;;10.70;51.20;;;;;;5031129;28;20418;-71
2023/02/26 12:09:13;;;;;;;1999.90;999.90;;;11.60;42.80;;;;;;5031199;28;20517;-71
2023/02/26 12:11:46;;;;;;;1999.90;999.90;;;12.20;30.10;;;;;;5030513;28;20410;-72
2023/02/26 12:14:36;;;;;;;1999.90;999.90;;;12.30;25.00;;;;;;5030843;28;20885;-71
2023/02/26 12:17:20;;;;;;;1999.90;999.90;;;11.50;21.50;;;;;;5030808;28;20399;-71
2023/02/26 12:20:07;;;;;;;1999.90;999.90;;;10.40;20.50;;;;;;5030798;28;20467;-71
2023/02/26 12:22:56;;;;;;;1999.90;999.90;;;9.30;23.80;;;;;;5030998;28;20791;-72